sensor_id;sensor_type;location;lat;lon;timestamp;pressure;altitude;pressure_sealevel;temperature;humidity
35224;BME280;21367;51.930;8.112;2023-04-25T00:04:50;100203.31;;;6.88;93.37
35224;BME280;21367;51.930;8.112;2023-04-25T00:09:57;100219.94;;;6.62;94.48
35224;BME280;21367;51.930;8.112;2023-04-25T00:15:02;100230.19;;;6.64;94.42
35224;BME280;21367;51.930;8.112;2023-04-25T00:20:07;100231.00;;;6.63;94.88
35224;BME280;21367;51.930;8.112;2023-04-25T00:25:15;100228.56;;;6.64;95.22
35224;BME280;21367;51.930;8.112;2023-04-25T00:30:18;100232.44;;;6.58;96.61
35224;BME280;21367;51.930;8.112;2023-04-25T00:35:23;100230.44;;;6.34;97.07
35224;BME280;21367;51.930;8.112;2023-04-25T00:40:29;100226.47;;;6.57;97.56
35224;BME280;21367;51.930;8.112;2023-04-25T00:45:38;100232.75;;;6.64;97.52
35224;BME280;21367;51.930;8.112;2023-04-25T00:50:43;100217.41;;;6.80;97.05
35224;BME280;21367;51.930;8.112;2023-04-25T00:55:54;100227.78;;;6.49;100.00
35224;BME280;21367;51.930;8.112;2023-04-25T01:01:02;100228.03;;;6.37;100.00
35224;BME280;21367;51.930;8.112;2023-04-25T01:06:10;100222.06;;;6.71;100.00
35224;BME280;21367;51.930;8.112;2023-04-25T01:11:17;100219.81;;;6.77;100.00
35224;BME280;21367;51.930;8.112;2023-04-25T01:16:21;100226.22;;;6.18;100.00
35224;BME280;21367;51.930;8.112;2023-04-25T01:21:28;100226.22;;;6.18;100.00
35224;BME280;21367;51.930;8.112;2023-04-25T01:26:33;100227.09;;;6.69;100.00
35224;BME280;21367;51.930;8.112;2023-04-25T01:31:41;100230.34;;;6.49;100.00
35224;BME280;21367;51.930;8.112;2023-04-25T01:36:49;100238.09;;;6.68;100.00
35224;BME280;21367;51.930;8.112;2023-04-25T01:41:53;100238.22;;;6.54;100.00
35224;BME280;21367;51.930;8.112;2023-04-25T01:46:57;100244.91;;;6.52;100.00
35224;BME280;21367;51.930;8.112;2023-04-25T01:52:05;100253.84;;;6.60;100.00
35224;BME280;21367;51.930;8.112;2023-04-25T01:57:09;100249.66;;;6.28;100.00
35224;BME280;21367;51.930;8.112;2023-04-25T02:02:15;100263.56;;;6.67;100.00
35224;BME280;21367;51.930;8.112;2023-04-25T02:07:22;100257.16;;;6.75;100.00
35224;BME280;21367;51.930;8.112;2023-04-25T02:12:27;100260.31;;;6.53;100.00
35224;BME280;21367;51.930;8.112;2023-04-25T02:17:54;100265.63;;;6.58;100.00
35224;BME280;21367;51.930;8.112;2023-04-25T02:23:01;100266.63;;;6.94;100.00
35224;BME280;21367;51.930;8.112;2023-04-25T02:28:05;100270.13;;;6.96;100.00
35224;BME280;21367;51.930;8.112;2023-04-25T02:33:10;100272.22;;;7.21;100.00
35224;BME280;21367;51.930;8.112;2023-04-25T02:38:16;100271.66;;;7.10;100.00
35224;BME280;21367;51.930;8.112;2023-04-25T02:43:20;100278.09;;;7.20;100.00
35224;BME280;21367;51.930;8.112;2023-04-25T02:48:26;100278.41;;;6.92;100.00
35224;BME280;21367;51.930;8.112;2023-04-25T02:53:32;100278.38;;;6.90;100.00
35224;BME280;21367;51.930;8.112;2023-04-25T02:58:36;100269.81;;;6.90;100.00
35224;BME280;21367;51.930;8.112;2023-04-25T03:03:40;100278.50;;;6.93;100.00
35224;BME280;21367;51.930;8.112;2023-04-25T03:08:47;100284.09;;;7.03;100.00
35224;BME280;21367;51.930;8.112;2023-04-25T03:13:51;100290.28;;;7.08;100.00
35224;BME280;21367;51.930;8.112;2023-04-25T03:18:56;100301.97;;;7.03;100.00
35224;BME280;21367;51.930;8.112;2023-04-25T03:24:05;100299.50;;;6.88;100.00
35224;BME280;21367;51.930;8.112;2023-04-25T03:29:09;100312.22;;;6.86;100.00
35224;BME280;21367;51.930;8.112;2023-04-25T03:34:14;100328.69;;;7.09;100.00
35224;BME280;21367;51.930;8.112;2023-04-25T03:39:21;100316.63;;;6.72;100.00
35224;BME280;21367;51.930;8.112;2023-04-25T03:44:27;100327.16;;;6.30;100.00
35224;BME280;21367;51.930;8.112;2023-04-25T03:49:31;100339.53;;;6.71;100.00
35224;BME280;21367;51.930;8.112;2023-04-25T03:54:39;100342.97;;;6.71;100.00
35224;BME280;21367;51.930;8.112;2023-04-25T03:59:46;100345.03;;;6.79;100.00
35224;BME280;21367;51.930;8.112;2023-04-25T04:04:51;100349.13;;;6.59;100.00
35224;BME280;21367;51.930;8.112;2023-04-25T04:09:59;100357.38;;;6.55;100.00
35224;BME280;21367;51.930;8.112;2023-04-25T04:15:10;100361.63;;;6.70;100.00
35224;BME280;21367;51.930;8.112;2023-04-25T04:20:14;100361.63;;;6.70;99.88
35224;BME280;21367;51.930;8.112;2023-04-25T04:25:21;100371.56;;;6.99;99.34
35224;BME280;21367;51.930;8.112;2023-04-25T04:30:39;100369.25;;;7.03;98.13
35224;BME280;21367;51.930;8.112;2023-04-25T04:35:46;100363.72;;;6.78;98.16
35224;BME280;21367;51.930;8.112;2023-04-25T04:40:56;100373.75;;;6.91;97.49
35224;BME280;21367;51.930;8.112;2023-04-25T04:46:19;100375.03;;;6.99;97.88
35224;BME280;21367;51.930;8.112;2023-04-25T04:51:45;100383.47;;;6.98;97.36
35224;BME280;21367;51.930;8.112;2023-04-25T04:57:13;100391.59;;;7.07;96.85
35224;BME280;21367;51.930;8.112;2023-04-25T05:02:29;100410.38;;;6.91;98.22
35224;BME280;21367;51.930;8.112;2023-04-25T05:08:09;100407.50;;;7.18;96.96
35224;BME280;21367;51.930;8.112;2023-04-25T05:13:23;100415.50;;;6.75;97.35
35224;BME280;21367;51.930;8.112;2023-04-25T05:18:41;100419.16;;;7.13;95.25
35224;BME280;21367;51.930;8.112;2023-04-25T05:24:04;100421.97;;;6.85;94.70
35224;BME280;21367;51.930;8.112;2023-04-25T05:34:24;100436.47;;;7.35;91.51
35224;BME280;21367;51.930;8.112;2023-04-25T05:39:31;100441.03;;;7.08;91.49
35224;BME280;21367;51.930;8.112;2023-04-25T05:44:42;100447.66;;;7.21;90.24
35224;BME280;21367;51.930;8.112;2023-04-25T05:50:27;100449.47;;;7.74;88.93
35224;BME280;21367;51.930;8.112;2023-04-25T05:55:47;100448.97;;;7.81;86.72
35224;BME280;21367;51.930;8.112;2023-04-25T06:00:59;100461.78;;;7.81;86.61
35224;BME280;21367;51.930;8.112;2023-04-25T06:06:06;100465.88;;;7.61;87.84
35224;BME280;21367;51.930;8.112;2023-04-25T06:11:10;100471.94;;;7.97;85.82
35224;BME280;21367;51.930;8.112;2023-04-25T06:16:14;100475.75;;;8.05;86.56
35224;BME280;21367;51.930;8.112;2023-04-25T06:21:20;100468.22;;;7.91;84.62
35224;BME280;21367;51.930;8.112;2023-04-25T06:26:25;100473.25;;;8.25;84.02
35224;BME280;21367;51.930;8.112;2023-04-25T06:31:29;100477.38;;;8.39;81.89
35224;BME280;21367;51.930;8.112;2023-04-25T06:36:37;100482.97;;;8.32;81.34
35224;BME280;21367;51.930;8.112;2023-04-25T06:41:45;100486.06;;;8.43;80.62
35224;BME280;21367;51.930;8.112;2023-04-25T06:47:08;100494.53;;;8.24;77.99
35224;BME280;21367;51.930;8.112;2023-04-25T06:52:16;100491.94;;;8.40;77.73
35224;BME280;21367;51.930;8.112;2023-04-25T06:57:21;100509.44;;;8.15;77.75
35224;BME280;21367;51.930;8.112;2023-04-25T07:02:25;100516.41;;;8.35;77.38
35224;BME280;21367;51.930;8.112;2023-04-25T07:07:31;100512.81;;;8.85;74.96
35224;BME280;21367;51.930;8.112;2023-04-25T07:12:36;100511.13;;;8.68;74.50
35224;BME280;21367;51.930;8.112;2023-04-25T07:17:40;100517.47;;;8.56;73.07
35224;BME280;21367;51.930;8.112;2023-04-25T07:22:46;100517.94;;;8.85;71.94
35224;BME280;21367;51.930;8.112;2023-04-25T07:27:50;100531.09;;;8.93;70.82
35224;BME280;21367;51.930;8.112;2023-04-25T07:32:55;100537.13;;;9.13;69.91
35224;BME280;21367;51.930;8.112;2023-04-25T07:38:02;100532.88;;;9.33;69.53
35224;BME280;21367;51.930;8.112;2023-04-25T07:43:07;100533.91;;;9.77;65.57
35224;BME280;21367;51.930;8.112;2023-04-25T07:48:21;100555.69;;;9.46;66.51
35224;BME280;21367;51.930;8.112;2023-04-25T07:53:29;100554.47;;;9.57;67.20
35224;BME280;21367;51.930;8.112;2023-04-25T07:58:39;100549.00;;;9.69;66.34
35224;BME280;21367;51.930;8.112;2023-04-25T08:03:45;100552.53;;;9.92;65.24
35224;BME280;21367;51.930;8.112;2023-04-25T08:09:09;100565.00;;;10.25;65.13
35224;BME280;21367;51.930;8.112;2023-04-25T08:14:15;100566.19;;;10.31;63.69
35224;BME280;21367;51.930;8.112;2023-04-25T08:19:19;100574.44;;;10.66;62.12
35224;BME280;21367;51.930;8.112;2023-04-25T08:24:26;100583.78;;;10.86;59.42
35224;BME280;21367;51.930;8.112;2023-04-25T08:29:30;100592.44;;;10.88;58.96
35224;BME280;21367;51.930;8.112;2023-04-25T08:34:34;100597.59;;;11.11;58.43
35224;BME280;21367;51.930;8.112;2023-04-25T08:39:42;100609.69;;;10.91;60.69
35224;BME280;21367;51.930;8.112;2023-04-25T08:45:15;100610.19;;;10.19;61.00
35224;BME280;21367;51.930;8.112;2023-04-25T08:50:19;100604.66;;;10.94;62.18
35224;BME280;21367;51.930;8.112;2023-04-25T08:55:30;100614.59;;;11.30;57.82
35224;BME280;21367;51.930;8.112;2023-04-25T09:00:34;100631.59;;;10.20;59.44
35224;BME280;21367;51.930;8.112;2023-04-25T09:05:39;100639.59;;;10.68;60.90
35224;BME280;21367;51.930;8.112;2023-04-25T09:10:46;100642.63;;;10.79;59.01
35224;BME280;21367;51.930;8.112;2023-04-25T09:15:52;100646.91;;;10.78;55.85
35224;BME280;21367;51.930;8.112;2023-04-25T09:21:28;100655.06;;;10.28;59.50
35224;BME280;21367;51.930;8.112;2023-04-25T09:26:37;100650.53;;;10.62;57.31
35224;BME280;21367;51.930;8.112;2023-04-25T09:31:41;100653.28;;;11.55;57.27
35224;BME280;21367;51.930;8.112;2023-04-25T09:36:46;100648.25;;;11.36;54.32
35224;BME280;21367;51.930;8.112;2023-04-25T09:41:56;100657.00;;;10.96;55.17
35224;BME280;21367;51.930;8.112;2023-04-25T09:47:00;100658.00;;;10.56;54.18
35224;BME280;21367;51.930;8.112;2023-04-25T09:52:05;100666.19;;;10.48;55.80
35224;BME280;21367;51.930;8.112;2023-04-25T09:57:19;100680.31;;;10.78;56.02
35224;BME280;21367;51.930;8.112;2023-04-25T10:02:25;100687.97;;;11.20;54.84
35224;BME280;21367;51.930;8.112;2023-04-25T10:07:36;100686.16;;;11.63;55.08
35224;BME280;21367;51.930;8.112;2023-04-25T10:12:47;100688.34;;;11.98;54.85
35224;BME280;21367;51.930;8.112;2023-04-25T10:17:51;100692.03;;;11.82;53.90
35224;BME280;21367;51.930;8.112;2023-04-25T10:22:59;100691.59;;;11.25;54.31
35224;BME280;21367;51.930;8.112;2023-04-25T10:28:09;100698.47;;;11.71;53.95
35224;BME280;21367;51.930;8.112;2023-04-25T10:33:17;100689.66;;;12.35;51.32
35224;BME280;21367;51.930;8.112;2023-04-25T10:38:21;100689.34;;;12.52;51.96
35224;BME280;21367;51.930;8.112;2023-04-25T10:43:38;100682.59;;;13.08;47.82
35224;BME280;21367;51.930;8.112;2023-04-25T10:48:46;100688.31;;;12.99;48.52
35224;BME280;21367;51.930;8.112;2023-04-25T10:53:58;100691.31;;;13.13;46.34
35224;BME280;21367;51.930;8.112;2023-04-25T10:59:10;100698.13;;;12.82;46.95
35224;BME280;21367;51.930;8.112;2023-04-25T11:04:21;100697.94;;;12.26;48.94
35224;BME280;21367;51.930;8.112;2023-04-25T11:09:28;100704.63;;;12.21;49.92
35224;BME280;21367;51.930;8.112;2023-04-25T11:14:43;100711.13;;;11.43;51.42
35224;BME280;21367;51.930;8.112;2023-04-25T11:19:48;100715.41;;;10.78;54.22
35224;BME280;21367;51.930;8.112;2023-04-25T11:25:04;100722.88;;;11.36;53.68
35224;BME280;21367;51.930;8.112;2023-04-25T11:30:15;100728.13;;;11.60;53.49
35224;BME280;21367;51.930;8.112;2023-04-25T11:35:20;100721.13;;;12.26;52.31
35224;BME280;21367;51.930;8.112;2023-04-25T11:40:37;100719.44;;;13.58;50.27
35224;BME280;21367;51.930;8.112;2023-04-25T11:45:49;100723.88;;;13.92;48.41
35224;BME280;21367;51.930;8.112;2023-04-25T11:50:54;100725.19;;;13.49;47.27
35224;BME280;21367;51.930;8.112;2023-04-25T11:55:58;100725.94;;;12.92;48.75
35224;BME280;21367;51.930;8.112;2023-04-25T12:01:05;100733.66;;;13.18;48.69
35224;BME280;21367;51.930;8.112;2023-04-25T12:06:08;100747.78;;;12.51;49.96
35224;BME280;21367;51.930;8.112;2023-04-25T12:11:20;100745.69;;;12.17;51.49
35224;BME280;21367;51.930;8.112;2023-04-25T12:16:29;100746.63;;;12.43;53.22
35224;BME280;21367;51.930;8.112;2023-04-25T12:21:33;100738.63;;;12.35;52.61
35224;BME280;21367;51.930;8.112;2023-04-25T12:26:53;100745.25;;;13.86;50.20
35224;BME280;21367;51.930;8.112;2023-04-25T12:32:02;100740.94;;;14.49;47.67
35224;BME280;21367;51.930;8.112;2023-04-25T12:37:08;100748.03;;;16.01;45.76
35224;BME280;21367;51.930;8.112;2023-04-25T12:42:12;100753.72;;;16.71;42.77
35224;BME280;21367;51.930;8.112;2023-04-25T12:47:22;100746.28;;;15.99;43.20
35224;BME280;21367;51.930;8.112;2023-04-25T12:52:26;100742.94;;;18.20;38.35
35224;BME280;21367;51.930;8.112;2023-04-25T12:57:33;100737.16;;;17.75;38.33
35224;BME280;21367;51.930;8.112;2023-04-25T13:02:45;100739.84;;;18.55;37.09
35224;BME280;21367;51.930;8.112;2023-04-25T13:07:49;100742.22;;;18.33;39.69
35224;BME280;21367;51.930;8.112;2023-04-25T13:12:53;100745.06;;;17.80;38.52
35224;BME280;21367;51.930;8.112;2023-04-25T13:17:59;100756.41;;;15.50;41.19
35224;BME280;21367;51.930;8.112;2023-04-25T13:23:08;100767.16;;;12.65;51.38
35224;BME280;21367;51.930;8.112;2023-04-25T13:28:13;100764.56;;;11.27;55.80
35224;BME280;21367;51.930;8.112;2023-04-25T13:33:23;100770.94;;;10.94;57.84
35224;BME280;21367;51.930;8.112;2023-04-25T13:38:27;100776.91;;;10.15;59.35
35224;BME280;21367;51.930;8.112;2023-04-25T13:43:33;100791.84;;;10.04;61.93
35224;BME280;21367;51.930;8.112;2023-04-25T13:48:50;100793.16;;;10.53;63.32
35224;BME280;21367;51.930;8.112;2023-04-25T13:53:55;100798.41;;;10.17;67.25
35224;BME280;21367;51.930;8.112;2023-04-25T13:58:58;100814.00;;;10.02;65.81
35224;BME280;21367;51.930;8.112;2023-04-25T14:04:05;100818.47;;;9.69;69.28
35224;BME280;21367;51.930;8.112;2023-04-25T14:09:08;100836.41;;;9.69;73.56
35224;BME280;21367;51.930;8.112;2023-04-25T14:14:16;100854.84;;;9.26;74.65
35224;BME280;21367;51.930;8.112;2023-04-25T14:19:22;100842.72;;;10.31;70.80
35224;BME280;21367;51.930;8.112;2023-04-25T14:24:26;100842.91;;;10.53;69.74
35224;BME280;21367;51.930;8.112;2023-04-25T14:29:30;100835.31;;;10.19;69.83
35224;BME280;21367;51.930;8.112;2023-04-25T14:34:37;100823.72;;;10.85;68.45
35224;BME280;21367;51.930;8.112;2023-04-25T14:39:41;100814.44;;;11.31;67.73
35224;BME280;21367;51.930;8.112;2023-04-25T14:44:45;100818.63;;;12.16;64.94
35224;BME280;21367;51.930;8.112;2023-04-25T14:49:54;100816.22;;;12.67;61.13
35224;BME280;21367;51.930;8.112;2023-04-25T14:54:59;100806.59;;;13.94;57.36
35224;BME280;21367;51.930;8.112;2023-04-25T15:00:12;100809.06;;;15.49;54.02
35224;BME280;21367;51.930;8.112;2023-04-25T15:05:21;100798.53;;;16.17;53.33
35224;BME280;21367;51.930;8.112;2023-04-25T15:10:31;100810.38;;;17.45;49.11
35224;BME280;21367;51.930;8.112;2023-04-25T15:15:36;100810.97;;;16.79;48.23
35224;BME280;21367;51.930;8.112;2023-04-25T15:20:44;100805.41;;;15.04;51.44
35224;BME280;21367;51.930;8.112;2023-04-25T15:25:50;100831.56;;;13.13;54.70
35224;BME280;21367;51.930;8.112;2023-04-25T15:30:54;100853.06;;;10.14;63.69
35224;BME280;21367;51.930;8.112;2023-04-25T15:36:02;100879.06;;;9.15;68.53
35224;BME280;21367;51.930;8.112;2023-04-25T15:41:07;100872.97;;;9.65;67.01
35224;BME280;21367;51.930;8.112;2023-04-25T15:46:12;100875.41;;;9.80;69.05
35224;BME280;21367;51.930;8.112;2023-04-25T15:51:21;100877.44;;;10.23;68.26
35224;BME280;21367;51.930;8.112;2023-04-25T15:56:25;100868.81;;;10.40;67.13
35224;BME280;21367;51.930;8.112;2023-04-25T16:01:31;100853.28;;;11.79;64.60
35224;BME280;21367;51.930;8.112;2023-04-25T16:06:43;100858.41;;;13.44;59.28
35224;BME280;21367;51.930;8.112;2023-04-25T16:11:50;100848.03;;;15.90;55.33
35224;BME280;21367;51.930;8.112;2023-04-25T16:16:54;100845.19;;;16.59;50.97
35224;BME280;21367;51.930;8.112;2023-04-25T16:22:01;100850.31;;;16.55;51.33
35224;BME280;21367;51.930;8.112;2023-04-25T16:27:05;100850.94;;;15.31;48.64
35224;BME280;21367;51.930;8.112;2023-04-25T16:32:19;100854.81;;;14.82;48.95
35224;BME280;21367;51.930;8.112;2023-04-25T16:37:26;100849.00;;;14.89;49.89
35224;BME280;21367;51.930;8.112;2023-04-25T16:42:30;100851.00;;;15.34;48.90
35224;BME280;21367;51.930;8.112;2023-04-25T16:47:34;100862.66;;;14.53;50.49
35224;BME280;21367;51.930;8.112;2023-04-25T16:52:41;100863.66;;;14.89;49.80
35224;BME280;21367;51.930;8.112;2023-04-25T16:57:45;100859.09;;;15.13;47.08
35224;BME280;21367;51.930;8.112;2023-04-25T17:07:15;100869.19;;;15.04;46.41
35224;BME280;21367;51.930;8.112;2023-04-25T17:12:28;100873.00;;;13.42;49.45
35224;BME280;21367;51.930;8.112;2023-04-25T17:17:34;100890.44;;;13.00;50.82
35224;BME280;21367;51.930;8.112;2023-04-25T17:22:41;100895.97;;;11.53;51.36
35224;BME280;21367;51.930;8.112;2023-04-25T17:27:44;100898.34;;;11.06;52.02
35224;BME280;21367;51.930;8.112;2023-04-25T17:32:49;100912.31;;;10.35;53.72
35224;BME280;21367;51.930;8.112;2023-04-25T17:38:06;100917.81;;;10.25;55.23
35224;BME280;21367;51.930;8.112;2023-04-25T17:43:12;100925.44;;;9.88;56.18
35224;BME280;21367;51.930;8.112;2023-04-25T17:48:21;100920.53;;;9.75;57.65
35224;BME280;21367;51.930;8.112;2023-04-25T17:53:30;100927.03;;;9.50;57.83
35224;BME280;21367;51.930;8.112;2023-04-25T17:58:43;100943.03;;;9.28;59.98
35224;BME280;21367;51.930;8.112;2023-04-25T18:09:07;100940.78;;;8.52;63.91
35224;BME280;21367;51.930;8.112;2023-04-25T18:14:16;100957.69;;;9.14;62.94
35224;BME280;21367;51.930;8.112;2023-04-25T18:19:20;100957.84;;;9.17;62.17
35224;BME280;21367;51.930;8.112;2023-04-25T18:24:28;100961.63;;;8.75;63.58
35224;BME280;21367;51.930;8.112;2023-04-25T18:29:33;100966.16;;;8.80;64.17
35224;BME280;21367;51.930;8.112;2023-04-25T18:34:37;100976.34;;;8.95;64.22
35224;BME280;21367;51.930;8.112;2023-04-25T18:39:46;100985.22;;;8.86;64.99
35224;BME280;21367;51.930;8.112;2023-04-25T18:44:50;100984.88;;;8.63;65.46
35224;BME280;21367;51.930;8.112;2023-04-25T18:49:53;100997.38;;;8.57;66.36
35224;BME280;21367;51.930;8.112;2023-04-25T18:55:00;101002.72;;;8.30;66.12
35224;BME280;21367;51.930;8.112;2023-04-25T19:00:06;101013.56;;;8.41;66.75
35224;BME280;21367;51.930;8.112;2023-04-25T19:05:29;101022.38;;;8.31;67.34
35224;BME280;21367;51.930;8.112;2023-04-25T19:10:36;101034.03;;;8.26;67.82
35224;BME280;21367;51.930;8.112;2023-04-25T19:15:42;101030.88;;;8.01;68.32
35224;BME280;21367;51.930;8.112;2023-04-25T19:20:45;101044.56;;;8.01;68.88
35224;BME280;21367;51.930;8.112;2023-04-25T19:26:00;101049.16;;;7.77;69.94
35224;BME280;21367;51.930;8.112;2023-04-25T19:31:04;101052.84;;;7.82;70.13
35224;BME280;21367;51.930;8.112;2023-04-25T19:36:08;101051.56;;;7.61;70.97
35224;BME280;21367;51.930;8.112;2023-04-25T19:41:15;101047.84;;;7.84;70.86
35224;BME280;21367;51.930;8.112;2023-04-25T19:46:19;101049.56;;;7.70;71.17
35224;BME280;21367;51.930;8.112;2023-04-25T19:51:24;101052.22;;;7.72;71.63
35224;BME280;21367;51.930;8.112;2023-04-25T19:56:33;101046.38;;;7.59;72.49
35224;BME280;21367;51.930;8.112;2023-04-25T20:01:37;101061.44;;;7.55;72.49
35224;BME280;21367;51.930;8.112;2023-04-25T20:06:41;101056.88;;;7.64;72.15
35224;BME280;21367;51.930;8.112;2023-04-25T20:11:48;101063.06;;;7.68;72.47
35224;BME280;21367;51.930;8.112;2023-04-25T20:16:51;101067.19;;;7.51;73.46
35224;BME280;21367;51.930;8.112;2023-04-25T20:21:56;101067.47;;;7.55;73.53
35224;BME280;21367;51.930;8.112;2023-04-25T20:27:03;101071.38;;;7.35;73.79
35224;BME280;21367;51.930;8.112;2023-04-25T20:32:07;101073.22;;;7.38;74.03
35224;BME280;21367;51.930;8.112;2023-04-25T20:37:12;101073.47;;;7.28;74.63
35224;BME280;21367;51.930;8.112;2023-04-25T20:42:19;101068.34;;;7.28;74.36
35224;BME280;21367;51.930;8.112;2023-04-25T20:47:23;101070.84;;;7.13;75.26
35224;BME280;21367;51.930;8.112;2023-04-25T20:52:28;101076.00;;;7.00;75.30
35224;BME280;21367;51.930;8.112;2023-04-25T20:57:34;101077.69;;;6.99;74.63
35224;BME280;21367;51.930;8.112;2023-04-25T21:02:38;101080.22;;;6.86;75.51
35224;BME280;21367;51.930;8.112;2023-04-25T21:07:42;101083.50;;;6.83;75.46
35224;BME280;21367;51.930;8.112;2023-04-25T21:12:49;101082.91;;;6.74;76.29
35224;BME280;21367;51.930;8.112;2023-04-25T21:17:53;101085.75;;;6.65;76.63
35224;BME280;21367;51.930;8.112;2023-04-25T21:22:58;101087.31;;;6.63;76.81
35224;BME280;21367;51.930;8.112;2023-04-25T21:28:04;101089.22;;;6.39;77.49
35224;BME280;21367;51.930;8.112;2023-04-25T21:33:07;101086.13;;;6.32;78.16
35224;BME280;21367;51.930;8.112;2023-04-25T21:38:11;101093.59;;;6.15;78.91
35224;BME280;21367;51.930;8.112;2023-04-25T21:43:18;101092.19;;;6.07;80.10
35224;BME280;21367;51.930;8.112;2023-04-25T21:48:22;101092.38;;;5.97;80.23
35224;BME280;21367;51.930;8.112;2023-04-25T21:53:26;101092.38;;;5.97;80.16
35224;BME280;21367;51.930;8.112;2023-04-25T21:58:34;101095.38;;;5.66;80.89
35224;BME280;21367;51.930;8.112;2023-04-25T22:03:37;101092.53;;;5.62;81.26
35224;BME280;21367;51.930;8.112;2023-04-25T22:08:41;101095.06;;;5.62;81.04
35224;BME280;21367;51.930;8.112;2023-04-25T22:13:48;101096.63;;;5.60;81.65
35224;BME280;21367;51.930;8.112;2023-04-25T22:18:51;101102.75;;;5.50;81.55
35224;BME280;21367;51.930;8.112;2023-04-25T22:23:55;101117.41;;;5.41;81.46
35224;BME280;21367;51.930;8.112;2023-04-25T22:29:02;101120.84;;;5.41;81.46
35224;BME280;21367;51.930;8.112;2023-04-25T22:34:06;101120.88;;;5.29;81.74
35224;BME280;21367;51.930;8.112;2023-04-25T22:39:10;101129.00;;;5.24;82.28
35224;BME280;21367;51.930;8.112;2023-04-25T22:44:18;101133.22;;;5.23;82.53
35224;BME280;21367;51.930;8.112;2023-04-25T22:49:22;101146.63;;;5.21;81.67
35224;BME280;21367;51.930;8.112;2023-04-25T22:54:26;101144.53;;;5.15;81.66
35224;BME280;21367;51.930;8.112;2023-04-25T22:59:32;101152.47;;;5.20;81.38
35224;BME280;21367;51.930;8.112;2023-04-25T23:04:37;101162.28;;;5.02;82.09
35224;BME280;21367;51.930;8.112;2023-04-25T23:09:41;101156.38;;;5.03;82.05
35224;BME280;21367;51.930;8.112;2023-04-25T23:14:50;101152.53;;;5.08;81.82
35224;BME280;21367;51.930;8.112;2023-04-25T23:19:54;101152.53;;;4.84;82.91
35224;BME280;21367;51.930;8.112;2023-04-25T23:24:58;101166.03;;;4.95;83.08
35224;BME280;21367;51.930;8.112;2023-04-25T23:30:05;101172.44;;;4.67;83.06
35224;BME280;21367;51.930;8.112;2023-04-25T23:35:10;101167.03;;;4.74;82.90
35224;BME280;21367;51.930;8.112;2023-04-25T23:40:14;101173.78;;;4.73;82.84
35224;BME280;21367;51.930;8.112;2023-04-25T23:45:23;101170.25;;;4.71;83.07
35224;BME280;21367;51.930;8.112;2023-04-25T23:50:26;101173.97;;;4.53;82.62
35224;BME280;21367;51.930;8.112;2023-04-25T23:55:30;101170.97;;;4.47;83.19
